createdAt,value
2018-06-23T00:00:01.720Z,14.80
2018-06-23T00:02:32.612Z,12.57
2018-06-23T00:05:03.915Z,11.13
2018-06-23T00:07:35.904Z,11.80
2018-06-23T00:10:07.110Z,12.77
2018-06-23T00:12:38.083Z,12.77
2018-06-23T00:15:09.811Z,13.10
2018-06-23T00:17:42.323Z,15.10
2018-06-23T00:20:14.586Z,16.03
2018-06-23T00:22:45.790Z,17.13
2018-06-23T00:25:22.159Z,14.73
2018-06-23T00:27:54.594Z,17.90
2018-06-23T00:30:26.024Z,13.37
2018-06-23T00:32:57.341Z,11.23
2018-06-23T00:35:29.359Z,14.60
2018-06-23T00:38:01.184Z,15.27
2018-06-23T00:40:32.662Z,13.13
2018-06-23T00:43:04.066Z,12.47
2018-06-23T00:45:35.701Z,14.87
2018-06-23T00:48:08.193Z,15.27
2018-06-23T00:50:39.345Z,17.50
2018-06-23T00:53:10.657Z,12.33
2018-06-23T00:55:42.816Z,10.33
2018-06-23T00:58:14.803Z,14.13
2018-06-23T01:00:45.971Z,17.63
2018-06-23T01:03:17.602Z,17.33
2018-06-23T01:05:50.130Z,15.03
2018-06-23T01:08:21.525Z,14.33
2018-06-23T01:10:53.865Z,12.73
2018-06-23T01:13:32.248Z,10.77
2018-06-23T01:16:04.654Z,14.57
2018-06-23T01:18:35.809Z,11.43
2018-06-23T01:21:07.204Z,13.13
2018-06-23T01:23:38.836Z,8.43
2018-06-23T01:26:10.164Z,12.57
2018-06-23T01:28:41.324Z,13.07
2018-06-23T01:31:12.875Z,9.37
2018-06-23T01:33:45.040Z,14.47
2018-06-23T01:36:16.570Z,8.97
2018-06-23T01:38:49.021Z,7.83
2018-06-23T01:41:21.097Z,11.90
2018-06-23T01:43:54.184Z,15.47
2018-06-23T01:46:27.512Z,8.13
2018-06-23T01:48:58.740Z,7.50
2018-06-23T01:51:30.732Z,9.87
2018-06-23T01:54:02.376Z,8.37
2018-06-23T01:56:33.173Z,9.63
2018-06-23T01:59:04.439Z,7.90
2018-06-23T02:01:36.493Z,6.93
2018-06-23T02:04:08.102Z,10.33
2018-06-23T02:06:39.373Z,9.17
2018-06-23T02:09:11.281Z,10.37
2018-06-23T02:11:43.888Z,9.00
2018-06-23T02:14:21.083Z,8.13
2018-06-23T02:16:57.529Z,10.13
2018-06-23T02:19:34.756Z,7.80
2018-06-23T02:22:12.023Z,8.37
2018-06-23T02:24:48.191Z,9.37
2018-06-23T02:27:24.439Z,9.47
2018-06-23T02:30:01.836Z,9.23
2018-06-23T02:32:38.858Z,8.17
2018-06-23T02:35:09.795Z,14.57
2018-06-23T02:37:41.678Z,5.37
2018-06-23T02:40:13.068Z,7.80
2018-06-23T02:42:44.063Z,9.13
2018-06-23T02:45:15.008Z,9.37
2018-06-23T02:47:45.437Z,9.20
2018-06-23T02:50:17.082Z,9.97
2018-06-23T02:52:48.895Z,11.43
2018-06-23T02:55:19.813Z,12.97
2018-06-23T02:57:51.358Z,6.07
2018-06-23T03:00:22.536Z,13.67
2018-06-23T03:02:54.466Z,11.83
2018-06-23T03:05:27.774Z,13.23
2018-06-23T03:08:00.014Z,10.37
2018-06-23T03:10:31.305Z,11.30
2018-06-23T03:13:02.522Z,11.43
2018-06-23T03:15:34.920Z,14.70
2018-06-23T03:18:07.337Z,10.83
2018-06-23T03:20:38.791Z,9.20
2018-06-23T03:23:10.062Z,10.10
2018-06-23T03:25:42.732Z,8.23
2018-06-23T03:28:14.782Z,13.83
2018-06-23T03:30:45.718Z,6.30
2018-06-23T03:33:17.048Z,9.97
2018-06-23T03:35:48.636Z,7.33
2018-06-23T03:38:19.722Z,7.67
2018-06-23T03:40:50.686Z,8.47
2018-06-23T03:43:23.674Z,7.00
2018-06-23T03:45:55.798Z,8.70
2018-06-23T03:48:27.256Z,6.97
2018-06-23T03:50:58.121Z,5.60
2018-06-23T03:53:30.202Z,14.10
2018-06-23T03:56:04.730Z,10.40
2018-06-23T03:58:35.934Z,8.13
2018-06-23T04:01:08.827Z,8.70
2018-06-23T04:03:41.708Z,7.57
2018-06-23T04:06:14.520Z,8.70
2018-06-23T04:08:46.120Z,11.53
2018-06-23T04:11:17.026Z,7.57
2018-06-23T04:13:48.755Z,7.23
2018-06-23T04:16:20.187Z,10.20
2018-06-23T04:18:57.770Z,9.10
2018-06-23T04:21:30.699Z,10.60
2018-06-23T04:24:02.153Z,8.70
2018-06-23T04:26:32.263Z,7.03
2018-06-23T04:29:02.289Z,8.77
2018-06-23T04:31:34.811Z,9.83
2018-06-23T04:34:06.593Z,9.23
2018-06-23T04:36:37.889Z,11.10
2018-06-23T04:39:08.933Z,9.93
2018-06-23T04:41:40.803Z,14.83
2018-06-23T04:44:12.235Z,9.20
2018-06-23T04:46:43.755Z,9.17
2018-06-23T04:49:15.799Z,12.50
2018-06-23T04:51:47.847Z,12.77
2018-06-23T04:54:19.173Z,7.13
2018-06-23T04:56:49.982Z,9.37
2018-06-23T04:59:21.669Z,8.20
2018-06-23T05:01:53.615Z,9.00
2018-06-23T05:04:25.042Z,9.70
2018-06-23T05:06:55.849Z,8.87
2018-06-23T05:09:27.345Z,11.07
2018-06-23T05:11:58.119Z,7.90
2018-06-23T05:14:28.935Z,9.63
2018-06-23T05:17:00.140Z,9.40
2018-06-23T05:19:31.794Z,7.37
2018-06-23T05:22:03.511Z,8.17
2018-06-23T05:24:34.120Z,11.07
2018-06-23T05:27:04.813Z,11.13
2018-06-23T05:29:39.084Z,8.17
2018-06-23T05:32:12.081Z,8.53
2018-06-23T05:34:43.305Z,9.00
2018-06-23T05:37:15.008Z,9.57
2018-06-23T05:39:46.667Z,7.53
2018-06-23T05:42:18.603Z,6.53
2018-06-23T05:44:49.588Z,8.70
2018-06-23T05:47:21.467Z,8.07
2018-06-23T05:49:53.029Z,9.23
2018-06-23T05:52:23.821Z,9.00
2018-06-23T05:54:54.619Z,8.93
2018-06-23T05:57:25.959Z,9.30
2018-06-23T05:59:57.879Z,7.37
2018-06-23T06:02:29.954Z,7.57
2018-06-23T06:05:01.660Z,7.73
2018-06-23T06:07:33.693Z,7.90
2018-06-23T06:10:06.355Z,12.10
2018-06-23T06:12:37.340Z,9.10
2018-06-23T06:15:09.000Z,6.50
2018-06-23T06:17:41.412Z,10.83
2018-06-23T06:20:15.825Z,8.37
2018-06-23T06:22:47.849Z,10.17
2018-06-23T06:25:22.313Z,11.10
2018-06-23T06:27:54.141Z,7.40
2018-06-23T06:30:25.690Z,8.50
2018-06-23T06:32:57.070Z,6.17
2018-06-23T06:35:29.244Z,8.87
2018-06-23T06:37:59.846Z,8.37
2018-06-23T06:40:30.566Z,4.90
2018-06-23T06:43:01.282Z,7.07
2018-06-23T06:45:31.980Z,8.33
2018-06-23T06:48:02.692Z,6.20
2018-06-23T06:50:34.355Z,7.03
2018-06-23T06:53:06.516Z,8.00
2018-06-23T06:55:38.107Z,8.57
2018-06-23T06:58:09.830Z,13.50
2018-06-23T07:00:42.304Z,5.20
2018-06-23T07:03:12.983Z,9.60
2018-06-23T07:05:43.714Z,8.20
2018-06-23T07:08:15.214Z,5.70
2018-06-23T07:10:45.618Z,6.80
2018-06-23T07:13:16.996Z,8.13
2018-06-23T07:15:48.912Z,8.50
2018-06-23T07:18:20.376Z,7.73
2018-06-23T07:20:53.845Z,6.57
2018-06-23T07:23:24.476Z,8.53
2018-06-23T07:25:55.812Z,8.13
2018-06-23T07:28:27.344Z,12.70
2018-06-23T07:30:58.821Z,11.27
2018-06-23T07:33:31.061Z,7.17
2018-06-23T07:36:03.350Z,6.20
2018-06-23T07:38:34.958Z,5.33
2018-06-23T07:41:06.670Z,8.20
2018-06-23T07:43:37.376Z,10.67
2018-06-23T07:46:08.056Z,7.70
2018-06-23T07:48:39.490Z,10.43
2018-06-23T07:51:11.114Z,7.30
2018-06-23T07:53:43.119Z,5.03
2018-06-23T07:56:14.976Z,7.37
2018-06-23T07:58:46.645Z,9.13
2018-06-23T08:01:17.911Z,11.10
2018-06-23T08:03:49.289Z,7.00
2018-06-23T08:06:20.868Z,9.70
2018-06-23T08:08:51.671Z,8.60
2018-06-23T08:11:23.570Z,9.23
2018-06-23T08:13:53.963Z,7.07
2018-06-23T08:16:25.708Z,5.53
2018-06-23T08:18:56.246Z,9.43
2018-06-23T08:21:27.448Z,6.03
2018-06-23T08:23:59.270Z,15.10
2018-06-23T08:26:31.422Z,9.80
2018-06-23T08:29:03.572Z,14.53
2018-06-23T08:31:35.599Z,7.77
2018-06-23T08:34:08.521Z,10.13
2018-06-23T08:36:41.863Z,11.80
2018-06-23T08:39:13.415Z,8.87
2018-06-23T08:41:44.939Z,10.10
2018-06-23T08:44:16.383Z,11.33
2018-06-23T08:46:47.938Z,10.97
2018-06-23T08:49:20.018Z,9.63
2018-06-23T08:51:52.085Z,12.27
2018-06-23T08:54:23.520Z,9.47
2018-06-23T08:56:55.206Z,10.60
2018-06-23T08:59:28.082Z,15.33
2018-06-23T09:02:00.388Z,9.47
2018-06-23T09:04:31.886Z,8.97
2018-06-23T09:07:03.626Z,13.87
2018-06-23T09:09:35.526Z,13.50
2018-06-23T09:12:07.755Z,9.27
2018-06-23T09:14:40.647Z,7.67
2018-06-23T09:17:12.196Z,12.57
2018-06-23T09:19:42.859Z,12.53
2018-06-23T09:22:13.798Z,13.27
2018-06-23T09:24:44.586Z,12.93
2018-06-23T09:27:15.070Z,8.17
2018-06-23T09:29:47.241Z,10.43
2018-06-23T09:32:18.429Z,10.87
2018-06-23T09:34:50.096Z,8.97
2018-06-23T09:37:21.704Z,9.87
2018-06-23T09:39:53.869Z,10.50
2018-06-23T09:42:24.824Z,12.60
2018-06-23T09:44:57.442Z,10.53
2018-06-23T09:47:27.747Z,13.30
2018-06-23T09:49:58.594Z,11.80
2018-06-23T09:52:31.691Z,11.53
2018-06-23T09:55:03.253Z,8.97
2018-06-23T09:57:34.443Z,8.97
2018-06-23T10:00:06.170Z,10.23
2018-06-23T10:02:37.585Z,10.00
2018-06-23T10:05:09.371Z,8.43
2018-06-23T10:07:41.167Z,11.87
2018-06-23T10:10:13.269Z,7.43
2018-06-23T10:12:44.460Z,9.07
2018-06-23T10:15:16.123Z,10.77
2018-06-23T10:17:47.824Z,7.60
2018-06-23T10:20:18.765Z,7.17
2018-06-23T10:22:49.671Z,3.67
2018-06-23T10:25:21.158Z,6.30
2018-06-23T10:27:52.790Z,6.63
2018-06-23T10:30:23.767Z,8.03
2018-06-23T10:32:55.080Z,13.80
2018-06-23T10:35:27.137Z,8.07
2018-06-23T10:37:59.344Z,6.57
2018-06-23T10:40:30.717Z,5.00
2018-06-23T10:43:01.579Z,5.30
2018-06-23T10:45:32.773Z,5.47
2018-06-23T10:48:04.465Z,3.53
2018-06-23T10:50:36.985Z,6.40
2018-06-23T10:53:08.578Z,5.30
2018-06-23T10:55:40.358Z,5.07
2018-06-23T10:58:12.818Z,3.80
2018-06-23T11:00:45.711Z,7.83
2018-06-23T11:03:17.655Z,5.13
2018-06-23T11:05:49.643Z,5.50
2018-06-23T11:08:21.021Z,6.33
2018-06-23T11:10:52.479Z,7.10
2018-06-23T11:13:24.941Z,8.23
2018-06-23T11:15:57.231Z,8.90
2018-06-23T11:18:29.427Z,6.20
2018-06-23T11:21:01.156Z,6.33
2018-06-23T11:23:32.810Z,6.80
2018-06-23T11:26:03.723Z,8.10
2018-06-23T11:28:33.871Z,7.30
2018-06-23T11:31:04.942Z,7.90
2018-06-23T11:33:35.924Z,6.33
2018-06-23T11:36:06.795Z,9.57
2018-06-23T11:38:37.891Z,6.17
2018-06-23T11:41:09.432Z,9.47
2018-06-23T11:43:41.396Z,9.07
2018-06-23T11:46:13.484Z,6.97
2018-06-23T11:48:45.882Z,6.47
2018-06-23T11:51:17.418Z,6.23
2018-06-23T11:53:49.518Z,13.17
2018-06-23T11:56:23.145Z,10.23
2018-06-23T11:58:54.782Z,10.83
2018-06-23T12:01:25.909Z,7.27
2018-06-23T12:03:58.396Z,7.90
2018-06-23T12:06:29.404Z,9.77
2018-06-23T12:09:01.616Z,5.60
2018-06-23T12:11:33.053Z,11.10
2018-06-23T12:14:05.504Z,7.27
2018-06-23T12:16:36.956Z,8.30
2018-06-23T12:19:09.656Z,7.37
2018-06-23T12:21:41.286Z,11.97
2018-06-23T12:24:12.635Z,7.57
2018-06-23T12:26:43.804Z,11.93
2018-06-23T12:29:15.570Z,7.73
2018-06-23T12:31:47.414Z,12.90
2018-06-23T12:34:18.960Z,11.50
2018-06-23T12:36:50.302Z,8.40
2018-06-23T12:39:22.225Z,8.90
2018-06-23T12:41:53.711Z,26.67
2018-06-23T12:44:24.960Z,7.43
2018-06-23T12:46:55.880Z,8.97
2018-06-23T12:49:27.744Z,9.00
2018-06-23T12:51:59.596Z,8.67
2018-06-23T12:54:31.768Z,9.63
2018-06-23T12:57:02.679Z,12.37
2018-06-23T12:59:34.599Z,10.67
2018-06-23T13:02:06.885Z,10.87
2018-06-23T13:04:38.197Z,10.93
2018-06-23T13:07:08.846Z,11.67
2018-06-23T13:09:39.982Z,8.33
2018-06-23T13:12:11.209Z,7.87
2018-06-23T13:14:41.252Z,9.77
2018-06-23T13:17:12.372Z,7.10
2018-06-23T13:19:43.426Z,7.30
2018-06-23T13:22:13.772Z,10.07
2018-06-23T13:24:44.021Z,8.73
2018-06-23T13:27:14.489Z,11.20
2018-06-23T13:29:44.748Z,12.23
2018-06-23T13:32:14.812Z,10.53
2018-06-23T13:34:45.277Z,9.43
2018-06-23T13:37:18.020Z,9.20
2018-06-23T13:39:48.890Z,8.97
2018-06-23T13:42:19.602Z,8.03
2018-06-23T13:44:50.572Z,9.77
2018-06-23T13:47:22.269Z,10.97
2018-06-23T13:49:53.700Z,8.53
2018-06-23T13:52:24.087Z,8.00
2018-06-23T13:54:54.764Z,6.27
2018-06-23T13:57:26.451Z,7.70
2018-06-23T13:59:57.205Z,5.27
2018-06-23T14:02:27.400Z,9.77
2018-06-23T14:04:57.582Z,7.60
2018-06-23T14:07:27.955Z,6.20
2018-06-23T14:09:58.655Z,8.67
2018-06-23T14:12:29.849Z,5.97
2018-06-23T14:15:00.339Z,5.00
2018-06-23T14:17:30.552Z,7.60
2018-06-23T14:20:01.075Z,4.83
2018-06-23T14:22:31.128Z,8.17
2018-06-23T14:25:04.783Z,9.63
2018-06-23T14:27:35.803Z,8.63
2018-06-23T14:30:06.252Z,6.23
2018-06-23T14:32:36.658Z,6.83
2018-06-23T14:35:07.417Z,6.67
2018-06-23T14:37:38.125Z,5.80
2018-06-23T14:40:08.471Z,8.53
2018-06-23T14:42:39.883Z,8.17
2018-06-23T14:45:11.075Z,7.47
2018-06-23T14:47:41.136Z,11.37
2018-06-23T14:50:11.953Z,5.57
2018-06-23T14:52:43.107Z,7.07
2018-06-23T14:55:13.857Z,5.10
2018-06-23T14:57:44.439Z,6.50
2018-06-23T15:00:14.739Z,4.47
2018-06-23T15:02:44.815Z,4.30
2018-06-23T15:05:14.861Z,4.37
2018-06-23T15:07:45.639Z,5.37
2018-06-23T15:10:20.951Z,5.50
2018-06-23T15:12:56.115Z,6.87
2018-06-23T15:15:25.897Z,5.63
2018-06-23T15:17:56.432Z,7.33
2018-06-23T15:20:26.908Z,6.20
2018-06-23T15:22:57.538Z,8.57
2018-06-23T15:25:28.357Z,5.67
2018-06-23T15:27:58.385Z,6.70
2018-06-23T15:30:28.687Z,5.73
2018-06-23T15:32:59.589Z,6.50
2018-06-23T15:35:29.635Z,7.73
2018-06-23T15:38:00.103Z,5.23
2018-06-23T15:40:31.982Z,8.20
2018-06-23T15:43:02.217Z,5.73
2018-06-23T15:45:32.774Z,8.27
2018-06-23T15:48:04.785Z,5.97
2018-06-23T15:50:34.885Z,6.57
2018-06-23T15:53:05.409Z,7.83
2018-06-23T15:55:36.303Z,5.13
2018-06-23T15:58:06.677Z,7.13
2018-06-23T16:00:38.535Z,6.23
2018-06-23T16:03:12.025Z,7.57
2018-06-23T16:05:42.660Z,8.00
2018-06-23T16:08:13.348Z,6.13
2018-06-23T16:10:44.109Z,5.70
2018-06-23T16:13:14.416Z,6.20
2018-06-23T16:15:44.845Z,4.67
2018-06-23T16:18:15.655Z,8.60
2018-06-23T16:20:46.314Z,5.67
2018-06-23T16:23:16.926Z,7.70
2018-06-23T16:25:47.923Z,6.87
2018-06-23T16:28:19.859Z,8.27
2018-06-23T16:30:50.508Z,5.77
2018-06-23T16:33:21.117Z,9.73
2018-06-23T16:35:52.428Z,8.70
2018-06-23T16:38:22.905Z,8.23
2018-06-23T16:40:53.190Z,6.47
2018-06-23T16:43:23.892Z,9.17
2018-06-23T16:45:55.824Z,8.03
2018-06-23T16:48:26.977Z,5.20
2018-06-23T16:50:57.154Z,10.67
2018-06-23T16:53:27.953Z,8.60
2018-06-23T16:55:59.042Z,9.50
2018-06-23T16:58:29.622Z,8.93
2018-06-23T17:01:06.125Z,8.63
2018-06-23T17:03:36.664Z,8.73
2018-06-23T17:06:08.583Z,9.30
2018-06-23T17:08:38.570Z,9.10
2018-06-23T17:11:10.729Z,6.87
2018-06-23T17:13:41.075Z,9.37
2018-06-23T17:16:11.702Z,9.37
2018-06-23T17:18:50.013Z,12.30
2018-06-23T17:21:23.873Z,12.50
2018-06-23T17:23:53.962Z,10.53
2018-06-23T17:26:25.541Z,10.87
2018-06-23T17:28:55.569Z,11.37
2018-06-23T17:31:26.837Z,10.57
2018-06-23T17:33:58.617Z,17.53
2018-06-23T17:36:30.201Z,9.20
2018-06-23T17:39:02.253Z,9.67
2018-06-23T17:41:33.143Z,11.40
2018-06-23T17:44:05.394Z,8.03
2018-06-23T17:46:36.988Z,14.53
2018-06-23T17:49:08.392Z,9.13
2018-06-23T17:51:39.424Z,17.43
2018-06-23T17:54:09.880Z,16.17
2018-06-23T17:56:41.298Z,9.63
2018-06-23T17:59:11.640Z,19.10
2018-06-23T18:01:43.057Z,19.77
2018-06-23T18:04:13.154Z,13.90
2018-06-23T18:06:43.658Z,10.47
2018-06-23T18:09:27.479Z,11.33
2018-06-23T18:11:59.674Z,10.33
2018-06-23T18:14:29.731Z,9.70
2018-06-23T18:17:02.219Z,12.93
2018-06-23T18:19:32.551Z,9.33
2018-06-23T18:22:04.125Z,22.93
2018-06-23T18:24:35.806Z,10.47
2018-06-23T18:27:07.673Z,11.57
2018-06-23T18:29:38.204Z,11.93
2018-06-23T18:32:08.779Z,9.57
2018-06-23T18:34:44.315Z,9.53
2018-06-23T18:37:18.415Z,11.83
2018-06-23T18:39:55.015Z,9.07
2018-06-23T18:42:27.761Z,11.17
2018-06-23T18:44:59.146Z,9.37
2018-06-23T18:47:29.889Z,11.10
2018-06-23T18:50:03.385Z,10.93
2018-06-23T18:52:44.173Z,9.67
2018-06-23T18:55:14.494Z,11.33
2018-06-23T18:57:45.192Z,10.60
2018-06-23T19:00:16.421Z,11.07
2018-06-23T19:02:46.891Z,13.60
2018-06-23T19:05:17.038Z,12.33
2018-06-23T19:07:49.059Z,10.50
2018-06-23T19:10:19.784Z,16.70
2018-06-23T19:12:50.613Z,11.67
2018-06-23T19:15:22.438Z,13.27
2018-06-23T19:17:52.994Z,15.77
2018-06-23T19:20:23.737Z,13.43
2018-06-23T19:22:55.480Z,16.00
2018-06-23T19:25:27.879Z,13.80
2018-06-23T19:27:58.021Z,17.90
2018-06-23T19:30:28.516Z,16.20
2018-06-23T19:32:59.196Z,12.10
2018-06-23T19:35:29.934Z,16.63
2018-06-23T19:38:00.922Z,14.40
2018-06-23T19:40:31.349Z,15.27
2018-06-23T19:43:01.541Z,17.63
2018-06-23T19:45:32.062Z,13.87
2018-06-23T19:48:05.036Z,17.23
2018-06-23T19:50:38.850Z,14.57
2018-06-23T19:53:09.539Z,15.47
2018-06-23T19:55:46.828Z,18.40
2018-06-23T19:58:20.384Z,16.40
2018-06-23T20:00:50.688Z,15.73
2018-06-23T20:03:21.263Z,14.07
2018-06-23T20:05:51.691Z,15.73
2018-06-23T20:08:22.540Z,18.57
2018-06-23T20:10:53.452Z,18.37
2018-06-23T20:13:24.024Z,18.23
2018-06-23T20:15:56.282Z,18.67
2018-06-23T20:18:27.481Z,16.57
2018-06-23T20:20:58.620Z,16.13
2018-06-23T20:23:30.773Z,16.40
2018-06-23T20:26:01.094Z,18.83
2018-06-23T20:28:32.560Z,19.80
2018-06-23T20:31:03.059Z,14.60
2018-06-23T20:33:35.110Z,21.53
2018-06-23T20:36:05.902Z,23.67
2018-06-23T20:38:36.418Z,18.90
2018-06-23T20:41:07.860Z,20.67
2018-06-23T20:43:38.257Z,26.07
2018-06-23T20:46:09.881Z,29.63
2018-06-23T20:48:40.324Z,18.93
2018-06-23T20:51:10.800Z,20.03
2018-06-23T20:53:41.137Z,20.90
2018-06-23T20:56:11.592Z,17.70
2018-06-23T20:58:44.186Z,21.90
2018-06-23T21:01:15.006Z,20.67
2018-06-23T21:03:46.293Z,18.83
2018-06-23T21:06:17.399Z,20.97
2018-06-23T21:08:49.354Z,24.70
2018-06-23T21:11:20.246Z,19.53
2018-06-23T21:13:50.994Z,22.93
2018-06-23T21:16:21.869Z,24.40
2018-06-23T21:18:53.721Z,18.07
2018-06-23T21:21:24.427Z,20.80
2018-06-23T21:23:58.798Z,22.20
2018-06-23T21:26:29.635Z,23.17
2018-06-23T21:29:00.547Z,23.37
2018-06-23T21:31:32.022Z,21.17
2018-06-23T21:34:04.949Z,21.53
2018-06-23T21:36:36.110Z,22.47
2018-06-23T21:39:09.749Z,21.43
2018-06-23T21:41:40.259Z,24.53
2018-06-23T21:44:11.850Z,22.80
2018-06-23T21:46:42.540Z,22.67
2018-06-23T21:49:13.642Z,27.70
2018-06-23T21:51:44.365Z,26.63
2018-06-23T21:54:15.153Z,20.60
2018-06-23T21:56:45.822Z,24.97
2018-06-23T21:59:16.624Z,23.27
2018-06-23T22:01:48.353Z,25.40
2018-06-23T22:04:24.738Z,28.27
2018-06-23T22:06:54.964Z,23.43
2018-06-23T22:09:26.120Z,24.43
2018-06-23T22:11:56.960Z,24.90
2018-06-23T22:14:28.999Z,18.23
2018-06-23T22:16:59.754Z,26.60
2018-06-23T22:19:30.399Z,24.93
2018-06-23T22:22:01.022Z,24.13
2018-06-23T22:24:31.175Z,26.77
2018-06-23T22:27:01.247Z,27.13
2018-06-23T22:29:31.356Z,25.87
2018-06-23T22:32:02.001Z,21.23
2018-06-23T22:34:32.180Z,22.27
2018-06-23T22:37:04.311Z,19.17
2018-06-23T22:39:35.227Z,21.17
2018-06-23T22:42:05.470Z,20.73
2018-06-23T22:44:35.688Z,18.00
2018-06-23T22:47:06.173Z,20.13
2018-06-23T22:49:36.724Z,20.70
2018-06-23T22:52:07.108Z,21.80
2018-06-23T22:54:38.747Z,19.03
2018-06-23T22:57:08.989Z,24.07
2018-06-23T22:59:39.561Z,20.27
2018-06-23T23:02:11.024Z,20.83
2018-06-23T23:04:41.713Z,22.27
2018-06-23T23:07:12.475Z,20.37
2018-06-23T23:09:43.955Z,21.10
2018-06-23T23:12:14.321Z,18.40
2018-06-23T23:14:44.799Z,20.77
2018-06-23T23:17:16.862Z,22.50
2018-06-23T23:19:48.261Z,17.07
2018-06-23T23:22:18.748Z,23.50
2018-06-23T23:24:49.959Z,22.93
2018-06-23T23:27:20.328Z,24.23
2018-06-23T23:29:50.623Z,18.93
2018-06-23T23:32:23.597Z,20.47
2018-06-23T23:34:54.183Z,21.53
2018-06-23T23:37:24.727Z,22.90
2018-06-23T23:39:54.683Z,26.50
2018-06-23T23:42:25.562Z,24.40
2018-06-23T23:44:57.265Z,24.30
2018-06-23T23:47:27.583Z,26.70
2018-06-23T23:49:59.069Z,29.87
2018-06-23T23:52:29.032Z,24.67
2018-06-23T23:54:59.281Z,24.20
2018-06-23T23:57:29.555Z,34.13
2018-06-23T23:59:59.787Z,29.40
